Portada
METAR-TAF:

METAR-TAF

Aeroports :

Orenburg, Rússia

latitud: 51-46-48N, longitud: 055-07-12E, altitud: 109 m

Observació

L'informe es va fer fa 35 minuts, a les 10:00 UTC
Vent 17 kt del Est
Temperatura 12°C
Humitat 40%
Pressió 1017 hPa
Visibilitat 10 km o més
sense núvols per sota de 1500 mi sense presència de cumulonimbus.

METAR: UWOO 301000Z 10009MPS CAVOK 12/M01 Q1017 R08/65D NOSIG RMK QFE752/1002

Hora: 15:35 (10:35 UTC)

Pronòstic

L'informe es va fer fa 2 hores i 47 minuts, a les 07:48 UTC
Pronòstic vàlid del 30 a les 09 UTC al 31 a les 09 UTC
Vent 12 kt del Est/Sud-Est amb ràfegues de 25 kt
Visibilitat 10 km o més
Núvols disperses a una alçada de 4000 ft
Temporalment
l' 30 a les 09 UTC al 31 a les 09 UTC
Vent 17 kt del Est amb ràfegues de 27 kt
Escasses núvols a una alçada de 500 ft

TAF: UWOO 300748Z 3009/3109 12006G13MPS 9999 SCT040 TX14/3010Z TNM01/3101Z TEMPO 3009/3109 10009G14MPS FEW005

Observacions i pronòstics meteorològics de més de 4000 aeroports (METAR i TAF).

Les estacions disponibles són els punts grocs i vermells al mapa.

Posi el ratolí al punt desitjat per veure el nom de l'estació.

Feu clic per veure les observacions i els pronòstics meteorològics.

Per canviar el mapa: feu clic els botons verds amb una creu de color negre per apropar; al botó verd amb un guió per allunyar la imatge; o en les fletxes verdes per a mapes adjacents.


METAR-TAF: